sensor_id;sensor_type;location;lat;lon;timestamp;P1;durP1;ratioP1;P2;durP2;ratioP2
55663;SDS011;41540;57.880;12.164;2023-05-20T00:09:21;12.85;;;9.88;;
55663;SDS011;41540;57.880;12.164;2023-05-20T00:19:21;14.02;;;8.55;;
55663;SDS011;41540;57.880;12.164;2023-05-20T00:29:22;9.60;;;8.70;;
55663;SDS011;41540;57.880;12.164;2023-05-20T00:39:22;10.25;;;8.82;;
55663;SDS011;41540;57.880;12.164;2023-05-20T00:49:22;12.63;;;9.02;;
55663;SDS011;41540;57.880;12.164;2023-05-20T00:59:23;10.98;;;8.68;;
55663;SDS011;41540;57.880;12.164;2023-05-20T01:09:23;9.18;;;8.27;;
55663;SDS011;41540;57.880;12.164;2023-05-20T01:19:45;9.45;;;7.15;;
55663;SDS011;41540;57.880;12.164;2023-05-20T01:29:44;11.50;;;8.93;;
55663;SDS011;41540;57.880;12.164;2023-05-20T01:39:48;10.55;;;8.50;;
55663;SDS011;41540;57.880;12.164;2023-05-20T01:49:48;10.15;;;7.15;;
55663;SDS011;41540;57.880;12.164;2023-05-20T01:59:51;9.13;;;7.88;;
55663;SDS011;41540;57.880;12.164;2023-05-20T02:09:52;10.50;;;8.07;;
55663;SDS011;41540;57.880;12.164;2023-05-20T02:19:52;10.30;;;8.60;;
55663;SDS011;41540;57.880;12.164;2023-05-20T02:29:52;14.07;;;8.70;;
55663;SDS011;41540;57.880;12.164;2023-05-20T02:39:53;10.68;;;7.80;;
55663;SDS011;41540;57.880;12.164;2023-05-20T02:49:53;13.38;;;8.65;;
55663;SDS011;41540;57.880;12.164;2023-05-20T02:59:53;11.45;;;9.55;;
55663;SDS011;41540;57.880;12.164;2023-05-20T03:09:54;10.13;;;9.20;;
55663;SDS011;41540;57.880;12.164;2023-05-20T03:19:54;9.02;;;7.75;;
55663;SDS011;41540;57.880;12.164;2023-05-20T03:29:55;7.60;;;6.33;;
55663;SDS011;41540;57.880;12.164;2023-05-20T03:39:55;7.57;;;6.78;;
55663;SDS011;41540;57.880;12.164;2023-05-20T03:49:55;6.22;;;5.65;;
55663;SDS011;41540;57.880;12.164;2023-05-20T03:59:55;10.65;;;5.40;;
55663;SDS011;41540;57.880;12.164;2023-05-20T04:09:56;5.85;;;5.35;;
55663;SDS011;41540;57.880;12.164;2023-05-20T04:19:56;6.97;;;5.22;;
55663;SDS011;41540;57.880;12.164;2023-05-20T04:29:58;4.95;;;4.38;;
55663;SDS011;41540;57.880;12.164;2023-05-20T04:39:58;8.43;;;5.25;;
55663;SDS011;41540;57.880;12.164;2023-05-20T04:50:02;6.50;;;4.53;;
55663;SDS011;41540;57.880;12.164;2023-05-20T05:00:02;6.30;;;4.38;;
55663;SDS011;41540;57.880;12.164;2023-05-20T05:10:06;7.23;;;4.67;;
55663;SDS011;41540;57.880;12.164;2023-05-20T05:20:07;6.50;;;5.13;;
55663;SDS011;41540;57.880;12.164;2023-05-20T05:30:07;7.55;;;4.45;;
55663;SDS011;41540;57.880;12.164;2023-05-20T05:40:08;5.43;;;4.20;;
55663;SDS011;41540;57.880;12.164;2023-05-20T05:50:08;4.50;;;4.10;;
55663;SDS011;41540;57.880;12.164;2023-05-20T06:00:09;8.50;;;5.93;;
55663;SDS011;41540;57.880;12.164;2023-05-20T06:10:09;9.85;;;6.50;;
55663;SDS011;41540;57.880;12.164;2023-05-20T06:20:10;6.67;;;5.20;;
55663;SDS011;41540;57.880;12.164;2023-05-20T06:30:10;8.18;;;5.90;;
55663;SDS011;41540;57.880;12.164;2023-05-20T06:40:11;9.77;;;5.80;;
55663;SDS011;41540;57.880;12.164;2023-05-20T06:50:11;5.32;;;4.82;;
55663;SDS011;41540;57.880;12.164;2023-05-20T07:00:11;4.43;;;4.03;;
55663;SDS011;41540;57.880;12.164;2023-05-20T07:10:12;6.05;;;4.07;;
55663;SDS011;41540;57.880;12.164;2023-05-20T07:20:13;6.78;;;4.57;;
55663;SDS011;41540;57.880;12.164;2023-05-20T07:30:13;8.48;;;3.80;;
55663;SDS011;41540;57.880;12.164;2023-05-20T07:50:13;4.22;;;3.83;;
55663;SDS011;41540;57.880;12.164;2023-05-20T08:00:14;4.38;;;2.80;;
55663;SDS011;41540;57.880;12.164;2023-05-20T08:10:15;6.60;;;3.63;;
55663;SDS011;41540;57.880;12.164;2023-05-20T08:20:15;3.85;;;2.50;;
55663;SDS011;41540;57.880;12.164;2023-05-20T08:30:15;6.83;;;3.83;;
55663;SDS011;41540;57.880;12.164;2023-05-20T08:40:16;7.13;;;3.72;;
55663;SDS011;41540;57.880;12.164;2023-05-20T08:50:16;5.25;;;3.25;;
55663;SDS011;41540;57.880;12.164;2023-05-20T09:00:17;4.83;;;2.97;;
55663;SDS011;41540;57.880;12.164;2023-05-20T09:10:18;7.57;;;2.67;;
55663;SDS011;41540;57.880;12.164;2023-05-20T09:20:20;13.15;;;2.65;;
55663;SDS011;41540;57.880;12.164;2023-05-20T09:30:21;3.92;;;2.75;;
55663;SDS011;41540;57.880;12.164;2023-05-20T09:40:27;5.85;;;2.38;;
55663;SDS011;41540;57.880;12.164;2023-05-20T09:50:28;3.58;;;2.53;;
55663;SDS011;41540;57.880;12.164;2023-05-20T10:00:29;4.32;;;2.30;;
55663;SDS011;41540;57.880;12.164;2023-05-20T10:20:29;5.10;;;3.05;;
55663;SDS011;41540;57.880;12.164;2023-05-20T10:30:30;5.38;;;2.95;;
55663;SDS011;41540;57.880;12.164;2023-05-20T10:40:31;2.43;;;2.23;;
55663;SDS011;41540;57.880;12.164;2023-05-20T10:50:34;6.73;;;2.63;;
55663;SDS011;41540;57.880;12.164;2023-05-20T11:00:35;4.88;;;3.13;;
55663;SDS011;41540;57.880;12.164;2023-05-20T11:10:36;2.78;;;2.00;;
55663;SDS011;41540;57.880;12.164;2023-05-20T11:20:36;8.27;;;2.88;;
55663;SDS011;41540;57.880;12.164;2023-05-20T11:30:36;3.80;;;2.58;;
55663;SDS011;41540;57.880;12.164;2023-05-20T11:40:37;10.02;;;2.53;;
55663;SDS011;41540;57.880;12.164;2023-05-20T11:50:42;4.45;;;2.92;;
55663;SDS011;41540;57.880;12.164;2023-05-20T12:00:43;4.20;;;2.65;;
55663;SDS011;41540;57.880;12.164;2023-05-20T12:10:43;6.05;;;2.45;;
55663;SDS011;41540;57.880;12.164;2023-05-20T12:20:44;3.80;;;2.03;;
55663;SDS011;41540;57.880;12.164;2023-05-20T12:30:44;3.47;;;2.00;;
55663;SDS011;41540;57.880;12.164;2023-05-20T12:40:44;1.70;;;1.60;;
55663;SDS011;41540;57.880;12.164;2023-05-20T12:50:45;5.40;;;2.00;;
55663;SDS011;41540;57.880;12.164;2023-05-20T13:00:45;3.20;;;2.67;;
55663;SDS011;41540;57.880;12.164;2023-05-20T13:10:45;3.43;;;2.47;;
55663;SDS011;41540;57.880;12.164;2023-05-20T13:20:45;1.87;;;1.60;;
55663;SDS011;41540;57.880;12.164;2023-05-20T13:30:46;5.43;;;3.67;;
55663;SDS011;41540;57.880;12.164;2023-05-20T13:40:46;13.43;;;3.78;;
55663;SDS011;41540;57.880;12.164;2023-05-20T13:50:47;6.18;;;3.83;;
55663;SDS011;41540;57.880;12.164;2023-05-20T14:00:48;5.35;;;3.47;;
55663;SDS011;41540;57.880;12.164;2023-05-20T14:10:48;5.45;;;3.95;;
55663;SDS011;41540;57.880;12.164;2023-05-20T14:20:48;4.50;;;2.97;;
55663;SDS011;41540;57.880;12.164;2023-05-20T14:30:49;4.55;;;3.53;;
55663;SDS011;41540;57.880;12.164;2023-05-20T14:40:49;4.32;;;3.10;;
55663;SDS011;41540;57.880;12.164;2023-05-20T14:50:49;4.57;;;3.28;;
55663;SDS011;41540;57.880;12.164;2023-05-20T15:00:51;5.47;;;2.92;;
55663;SDS011;41540;57.880;12.164;2023-05-20T15:10:51;3.03;;;2.55;;
55663;SDS011;41540;57.880;12.164;2023-05-20T15:20:52;5.75;;;2.50;;
55663;SDS011;41540;57.880;12.164;2023-05-20T15:40:52;5.80;;;2.85;;
55663;SDS011;41540;57.880;12.164;2023-05-20T15:50:53;4.17;;;2.77;;
55663;SDS011;41540;57.880;12.164;2023-05-20T16:00:53;6.35;;;3.63;;
55663;SDS011;41540;57.880;12.164;2023-05-20T16:10:53;3.55;;;2.88;;
55663;SDS011;41540;57.880;12.164;2023-05-20T16:20:54;3.50;;;2.88;;
55663;SDS011;41540;57.880;12.164;2023-05-20T16:30:55;6.22;;;4.03;;
55663;SDS011;41540;57.880;12.164;2023-05-20T16:40:56;3.22;;;2.92;;
55663;SDS011;41540;57.880;12.164;2023-05-20T16:50:56;4.72;;;3.20;;
55663;SDS011;41540;57.880;12.164;2023-05-20T17:00:56;4.47;;;3.20;;
55663;SDS011;41540;57.880;12.164;2023-05-20T17:10:57;5.15;;;3.90;;
55663;SDS011;41540;57.880;12.164;2023-05-20T17:20:58;5.73;;;3.40;;
55663;SDS011;41540;57.880;12.164;2023-05-20T17:30:58;3.92;;;3.17;;
55663;SDS011;41540;57.880;12.164;2023-05-20T17:40:58;5.15;;;3.50;;
55663;SDS011;41540;57.880;12.164;2023-05-20T17:50:58;6.18;;;3.20;;
55663;SDS011;41540;57.880;12.164;2023-05-20T18:00:59;4.03;;;3.42;;
55663;SDS011;41540;57.880;12.164;2023-05-20T18:10:59;5.93;;;3.85;;
55663;SDS011;41540;57.880;12.164;2023-05-20T18:20:59;7.47;;;4.22;;
55663;SDS011;41540;57.880;12.164;2023-05-20T18:31:00;3.92;;;3.53;;
55663;SDS011;41540;57.880;12.164;2023-05-20T18:41:00;5.97;;;3.95;;
55663;SDS011;41540;57.880;12.164;2023-05-20T18:51:00;4.93;;;3.67;;
55663;SDS011;41540;57.880;12.164;2023-05-20T19:01:01;5.32;;;4.13;;
55663;SDS011;41540;57.880;12.164;2023-05-20T19:11:01;5.25;;;4.05;;
55663;SDS011;41540;57.880;12.164;2023-05-20T19:21:01;7.05;;;4.35;;
55663;SDS011;41540;57.880;12.164;2023-05-20T19:31:01;8.45;;;4.40;;
55663;SDS011;41540;57.880;12.164;2023-05-20T19:41:02;4.65;;;3.88;;
55663;SDS011;41540;57.880;12.164;2023-05-20T19:51:02;6.22;;;4.93;;
55663;SDS011;41540;57.880;12.164;2023-05-20T20:01:02;6.03;;;4.28;;
55663;SDS011;41540;57.880;12.164;2023-05-20T20:11:05;10.27;;;5.23;;
55663;SDS011;41540;57.880;12.164;2023-05-20T20:21:05;5.28;;;4.30;;
55663;SDS011;41540;57.880;12.164;2023-05-20T20:31:08;4.50;;;3.85;;
55663;SDS011;41540;57.880;12.164;2023-05-20T20:41:08;5.57;;;4.10;;
55663;SDS011;41540;57.880;12.164;2023-05-20T20:51:08;4.45;;;3.83;;
55663;SDS011;41540;57.880;12.164;2023-05-20T21:01:09;6.97;;;5.45;;
55663;SDS011;41540;57.880;12.164;2023-05-20T21:11:09;10.02;;;5.15;;
55663;SDS011;41540;57.880;12.164;2023-05-20T21:21:10;6.63;;;4.65;;
55663;SDS011;41540;57.880;12.164;2023-05-20T21:31:12;5.78;;;5.05;;
55663;SDS011;41540;57.880;12.164;2023-05-20T21:41:14;9.93;;;5.55;;
55663;SDS011;41540;57.880;12.164;2023-05-20T21:51:14;8.90;;;5.60;;
55663;SDS011;41540;57.880;12.164;2023-05-20T22:01:15;5.70;;;4.75;;
55663;SDS011;41540;57.880;12.164;2023-05-20T22:11:15;11.73;;;5.28;;
55663;SDS011;41540;57.880;12.164;2023-05-20T22:21:15;7.25;;;5.72;;
55663;SDS011;41540;57.880;12.164;2023-05-20T22:31:16;14.48;;;6.20;;
55663;SDS011;41540;57.880;12.164;2023-05-20T22:41:16;6.07;;;5.47;;
55663;SDS011;41540;57.880;12.164;2023-05-20T22:51:16;8.95;;;5.68;;
55663;SDS011;41540;57.880;12.164;2023-05-20T23:01:17;8.15;;;5.72;;
55663;SDS011;41540;57.880;12.164;2023-05-20T23:11:17;5.75;;;5.18;;
55663;SDS011;41540;57.880;12.164;2023-05-20T23:21:18;8.43;;;5.45;;
55663;SDS011;41540;57.880;12.164;2023-05-20T23:31:18;8.70;;;5.65;;
55663;SDS011;41540;57.880;12.164;2023-05-20T23:41:19;6.95;;;4.85;;
55663;SDS011;41540;57.880;12.164;2023-05-20T23:51:20;5.53;;;5.03;;
